sensor_id;sensor_type;location;lat;lon;timestamp;P1;durP1;ratioP1;P2;durP2;ratioP2
77612;SDS011;66777;52.282;5.960;2023-05-27T00:01:47;24.58;;;23.17;;
77612;SDS011;66777;52.282;5.960;2023-05-27T00:04:13;25.60;;;23.88;;
77612;SDS011;66777;52.282;5.960;2023-05-27T00:06:38;27.20;;;25.58;;
77612;SDS011;66777;52.282;5.960;2023-05-27T00:09:04;26.48;;;24.45;;
77612;SDS011;66777;52.282;5.960;2023-05-27T00:11:30;27.75;;;26.13;;
77612;SDS011;66777;52.282;5.960;2023-05-27T00:13:56;25.63;;;24.10;;
77612;SDS011;66777;52.282;5.960;2023-05-27T00:16:21;27.85;;;25.73;;
77612;SDS011;66777;52.282;5.960;2023-05-27T00:18:47;26.00;;;24.25;;
77612;SDS011;66777;52.282;5.960;2023-05-27T00:21:13;26.13;;;24.45;;
77612;SDS011;66777;52.282;5.960;2023-05-27T00:23:44;23.58;;;21.55;;
77612;SDS011;66777;52.282;5.960;2023-05-27T00:26:10;24.38;;;22.75;;
77612;SDS011;66777;52.282;5.960;2023-05-27T00:28:36;26.10;;;24.45;;
77612;SDS011;66777;52.282;5.960;2023-05-27T00:31:02;26.55;;;24.40;;
77612;SDS011;66777;52.282;5.960;2023-05-27T00:33:28;25.45;;;23.67;;
77612;SDS011;66777;52.282;5.960;2023-05-27T00:35:53;27.55;;;25.83;;
77612;SDS011;66777;52.282;5.960;2023-05-27T00:38:19;24.80;;;23.08;;
77612;SDS011;66777;52.282;5.960;2023-05-27T00:40:44;28.30;;;26.70;;
77612;SDS011;66777;52.282;5.960;2023-05-27T00:43:11;24.95;;;23.13;;
77612;SDS011;66777;52.282;5.960;2023-05-27T00:45:36;31.00;;;29.15;;
77612;SDS011;66777;52.282;5.960;2023-05-27T00:48:02;24.52;;;22.58;;
77612;SDS011;66777;52.282;5.960;2023-05-27T00:50:28;25.27;;;23.48;;
77612;SDS011;66777;52.282;5.960;2023-05-27T00:52:55;26.27;;;24.33;;
77612;SDS011;66777;52.282;5.960;2023-05-27T00:55:21;25.25;;;23.60;;
77612;SDS011;66777;52.282;5.960;2023-05-27T00:57:48;25.15;;;23.10;;
77612;SDS011;66777;52.282;5.960;2023-05-27T01:00:14;24.05;;;22.38;;
77612;SDS011;66777;52.282;5.960;2023-05-27T01:02:39;26.20;;;24.02;;
77612;SDS011;66777;52.282;5.960;2023-05-27T01:05:08;22.10;;;20.20;;
77612;SDS011;66777;52.282;5.960;2023-05-27T01:07:57;24.42;;;22.55;;
77612;SDS011;66777;52.282;5.960;2023-05-27T01:10:46;26.10;;;24.17;;
77612;SDS011;66777;52.282;5.960;2023-05-27T01:13:26;24.63;;;22.92;;
77612;SDS011;66777;52.282;5.960;2023-05-27T01:15:56;22.08;;;20.33;;
77612;SDS011;66777;52.282;5.960;2023-05-27T01:18:26;25.55;;;23.92;;
77612;SDS011;66777;52.282;5.960;2023-05-27T01:20:59;26.20;;;24.48;;
77612;SDS011;66777;52.282;5.960;2023-05-27T01:23:31;19.92;;;18.38;;
77612;SDS011;66777;52.282;5.960;2023-05-27T01:25:58;24.27;;;22.65;;
77612;SDS011;66777;52.282;5.960;2023-05-27T01:28:23;20.90;;;19.55;;
77612;SDS011;66777;52.282;5.960;2023-05-27T01:30:49;22.90;;;21.17;;
77612;SDS011;66777;52.282;5.960;2023-05-27T01:33:20;23.48;;;21.13;;
77612;SDS011;66777;52.282;5.960;2023-05-27T01:35:50;23.50;;;21.98;;
77612;SDS011;66777;52.282;5.960;2023-05-27T01:38:20;23.40;;;21.65;;
77612;SDS011;66777;52.282;5.960;2023-05-27T01:40:49;21.98;;;20.45;;
77612;SDS011;66777;52.282;5.960;2023-05-27T01:43:15;23.45;;;21.63;;
77612;SDS011;66777;52.282;5.960;2023-05-27T01:45:42;21.30;;;19.83;;
77612;SDS011;66777;52.282;5.960;2023-05-27T01:48:08;21.70;;;20.33;;
77612;SDS011;66777;52.282;5.960;2023-05-27T01:50:35;24.13;;;22.33;;
77612;SDS011;66777;52.282;5.960;2023-05-27T01:53:02;23.17;;;21.38;;
77612;SDS011;66777;52.282;5.960;2023-05-27T01:55:29;19.77;;;18.38;;
77612;SDS011;66777;52.282;5.960;2023-05-27T01:57:56;20.50;;;19.08;;
77612;SDS011;66777;52.282;5.960;2023-05-27T02:00:22;21.17;;;19.60;;
77612;SDS011;66777;52.282;5.960;2023-05-27T02:02:49;22.85;;;21.05;;
77612;SDS011;66777;52.282;5.960;2023-05-27T02:05:15;21.38;;;19.63;;
77612;SDS011;66777;52.282;5.960;2023-05-27T02:07:41;21.95;;;20.02;;
77612;SDS011;66777;52.282;5.960;2023-05-27T02:10:07;21.13;;;19.48;;
77612;SDS011;66777;52.282;5.960;2023-05-27T02:12:33;21.67;;;19.98;;
77612;SDS011;66777;52.282;5.960;2023-05-27T02:14:59;19.38;;;17.45;;
77612;SDS011;66777;52.282;5.960;2023-05-27T02:17:24;23.33;;;21.08;;
77612;SDS011;66777;52.282;5.960;2023-05-27T02:19:52;20.85;;;19.55;;
77612;SDS011;66777;52.282;5.960;2023-05-27T02:22:18;20.23;;;18.83;;
77612;SDS011;66777;52.282;5.960;2023-05-27T02:24:43;23.02;;;21.25;;
77612;SDS011;66777;52.282;5.960;2023-05-27T02:27:09;21.58;;;19.85;;
77612;SDS011;66777;52.282;5.960;2023-05-27T02:29:35;22.23;;;20.23;;
77612;SDS011;66777;52.282;5.960;2023-05-27T02:32:01;18.58;;;17.25;;
77612;SDS011;66777;52.282;5.960;2023-05-27T02:34:26;20.08;;;18.55;;
77612;SDS011;66777;52.282;5.960;2023-05-27T02:36:52;19.30;;;17.48;;
77612;SDS011;66777;52.282;5.960;2023-05-27T02:39:18;21.52;;;19.55;;
77612;SDS011;66777;52.282;5.960;2023-05-27T02:41:43;20.52;;;18.95;;
77612;SDS011;66777;52.282;5.960;2023-05-27T02:44:09;20.92;;;19.60;;
77612;SDS011;66777;52.282;5.960;2023-05-27T02:46:34;21.67;;;20.02;;
77612;SDS011;66777;52.282;5.960;2023-05-27T02:49:00;18.13;;;16.73;;
77612;SDS011;66777;52.282;5.960;2023-05-27T02:51:27;20.55;;;19.00;;
77612;SDS011;66777;52.282;5.960;2023-05-27T02:53:53;18.35;;;17.02;;
77612;SDS011;66777;52.282;5.960;2023-05-27T02:56:19;21.83;;;19.73;;
77612;SDS011;66777;52.282;5.960;2023-05-27T02:58:46;20.15;;;18.75;;
77612;SDS011;66777;52.282;5.960;2023-05-27T03:01:12;20.13;;;18.58;;
77612;SDS011;66777;52.282;5.960;2023-05-27T03:03:38;19.88;;;18.13;;
77612;SDS011;66777;52.282;5.960;2023-05-27T03:06:03;21.17;;;19.33;;
77612;SDS011;66777;52.282;5.960;2023-05-27T03:08:29;21.77;;;19.90;;
77612;SDS011;66777;52.282;5.960;2023-05-27T03:10:56;19.00;;;17.33;;
77612;SDS011;66777;52.282;5.960;2023-05-27T03:13:22;18.80;;;17.48;;
77612;SDS011;66777;52.282;5.960;2023-05-27T03:15:47;20.83;;;18.88;;
77612;SDS011;66777;52.282;5.960;2023-05-27T03:18:13;19.02;;;17.45;;
77612;SDS011;66777;52.282;5.960;2023-05-27T03:20:39;19.70;;;17.92;;
77612;SDS011;66777;52.282;5.960;2023-05-27T03:23:05;23.77;;;22.20;;
77612;SDS011;66777;52.282;5.960;2023-05-27T03:25:30;20.83;;;19.08;;
77612;SDS011;66777;52.282;5.960;2023-05-27T03:27:58;19.17;;;17.70;;
77612;SDS011;66777;52.282;5.960;2023-05-27T03:30:23;19.92;;;18.33;;
77612;SDS011;66777;52.282;5.960;2023-05-27T03:32:49;20.98;;;19.38;;
77612;SDS011;66777;52.282;5.960;2023-05-27T03:35:15;20.83;;;18.98;;
77612;SDS011;66777;52.282;5.960;2023-05-27T03:37:41;20.95;;;19.27;;
77612;SDS011;66777;52.282;5.960;2023-05-27T03:40:07;19.55;;;17.77;;
77612;SDS011;66777;52.282;5.960;2023-05-27T03:42:34;23.17;;;21.20;;
77612;SDS011;66777;52.282;5.960;2023-05-27T03:45:00;20.60;;;18.98;;
77612;SDS011;66777;52.282;5.960;2023-05-27T03:47:26;19.83;;;18.33;;
77612;SDS011;66777;52.282;5.960;2023-05-27T03:49:51;18.33;;;16.67;;
77612;SDS011;66777;52.282;5.960;2023-05-27T03:52:17;19.65;;;17.95;;
77612;SDS011;66777;52.282;5.960;2023-05-27T03:54:43;21.48;;;19.55;;
77612;SDS011;66777;52.282;5.960;2023-05-27T03:57:09;19.33;;;17.50;;
77612;SDS011;66777;52.282;5.960;2023-05-27T03:59:35;19.55;;;17.85;;
77612;SDS011;66777;52.282;5.960;2023-05-27T04:02:02;19.38;;;17.80;;
77612;SDS011;66777;52.282;5.960;2023-05-27T04:04:28;18.73;;;17.02;;
77612;SDS011;66777;52.282;5.960;2023-05-27T04:06:53;21.27;;;19.30;;
77612;SDS011;66777;52.282;5.960;2023-05-27T04:09:20;21.23;;;19.83;;
77612;SDS011;66777;52.282;5.960;2023-05-27T04:11:46;19.95;;;18.38;;
77612;SDS011;66777;52.282;5.960;2023-05-27T04:14:11;19.83;;;18.38;;
77612;SDS011;66777;52.282;5.960;2023-05-27T04:16:37;21.20;;;17.55;;
77612;SDS011;66777;52.282;5.960;2023-05-27T04:19:06;25.10;;;23.40;;
77612;SDS011;66777;52.282;5.960;2023-05-27T04:21:32;19.77;;;18.13;;
77612;SDS011;66777;52.282;5.960;2023-05-27T04:23:58;20.73;;;18.80;;
77612;SDS011;66777;52.282;5.960;2023-05-27T04:26:24;20.17;;;18.30;;
77612;SDS011;66777;52.282;5.960;2023-05-27T04:28:51;19.08;;;17.42;;
77612;SDS011;66777;52.282;5.960;2023-05-27T04:31:17;19.15;;;17.20;;
77612;SDS011;66777;52.282;5.960;2023-05-27T04:33:43;24.42;;;22.67;;
77612;SDS011;66777;52.282;5.960;2023-05-27T04:36:10;20.58;;;18.90;;
77612;SDS011;66777;52.282;5.960;2023-05-27T04:38:36;20.38;;;18.70;;
77612;SDS011;66777;52.282;5.960;2023-05-27T04:41:01;20.17;;;18.45;;
77612;SDS011;66777;52.282;5.960;2023-05-27T04:43:29;21.63;;;20.00;;
77612;SDS011;66777;52.282;5.960;2023-05-27T04:45:56;21.75;;;19.80;;
77612;SDS011;66777;52.282;5.960;2023-05-27T04:48:24;26.92;;;25.00;;
77612;SDS011;66777;52.282;5.960;2023-05-27T04:50:50;20.65;;;18.85;;
77612;SDS011;66777;52.282;5.960;2023-05-27T04:53:19;20.52;;;18.40;;
77612;SDS011;66777;52.282;5.960;2023-05-27T04:55:46;21.88;;;19.77;;
77612;SDS011;66777;52.282;5.960;2023-05-27T04:58:12;20.15;;;18.20;;
77612;SDS011;66777;52.282;5.960;2023-05-27T05:00:38;23.27;;;21.17;;
77612;SDS011;66777;52.282;5.960;2023-05-27T05:03:14;21.25;;;19.40;;
77612;SDS011;66777;52.282;5.960;2023-05-27T05:05:52;35.13;;;33.13;;
77612;SDS011;66777;52.282;5.960;2023-05-27T05:08:19;21.02;;;19.30;;
77612;SDS011;66777;52.282;5.960;2023-05-27T05:10:46;20.92;;;19.10;;
77612;SDS011;66777;52.282;5.960;2023-05-27T05:13:12;22.50;;;20.42;;
77612;SDS011;66777;52.282;5.960;2023-05-27T05:15:39;24.20;;;22.10;;
77612;SDS011;66777;52.282;5.960;2023-05-27T05:18:05;28.50;;;26.67;;
77612;SDS011;66777;52.282;5.960;2023-05-27T05:20:31;21.88;;;20.27;;
77612;SDS011;66777;52.282;5.960;2023-05-27T05:22:57;22.70;;;21.20;;
77612;SDS011;66777;52.282;5.960;2023-05-27T05:25:23;23.33;;;21.35;;
77612;SDS011;66777;52.282;5.960;2023-05-27T05:27:51;32.03;;;29.63;;
77612;SDS011;66777;52.282;5.960;2023-05-27T05:30:17;21.88;;;20.15;;
77612;SDS011;66777;52.282;5.960;2023-05-27T05:32:43;23.55;;;21.77;;
77612;SDS011;66777;52.282;5.960;2023-05-27T05:35:09;26.88;;;24.42;;
77612;SDS011;66777;52.282;5.960;2023-05-27T05:37:34;24.77;;;22.83;;
77612;SDS011;66777;52.282;5.960;2023-05-27T05:40:00;25.63;;;23.65;;
77612;SDS011;66777;52.282;5.960;2023-05-27T05:42:26;26.05;;;24.38;;
77612;SDS011;66777;52.282;5.960;2023-05-27T05:44:52;27.17;;;25.02;;
77612;SDS011;66777;52.282;5.960;2023-05-27T05:47:18;24.10;;;21.83;;
77612;SDS011;66777;52.282;5.960;2023-05-27T05:49:44;26.20;;;24.35;;
77612;SDS011;66777;52.282;5.960;2023-05-27T05:52:09;26.80;;;24.77;;
77612;SDS011;66777;52.282;5.960;2023-05-27T05:54:35;30.42;;;28.60;;
77612;SDS011;66777;52.282;5.960;2023-05-27T05:57:01;25.13;;;23.15;;
77612;SDS011;66777;52.282;5.960;2023-05-27T05:59:27;29.50;;;27.45;;
77612;SDS011;66777;52.282;5.960;2023-05-27T06:01:53;30.40;;;28.20;;
77612;SDS011;66777;52.282;5.960;2023-05-27T06:04:19;29.15;;;26.95;;
77612;SDS011;66777;52.282;5.960;2023-05-27T06:06:45;30.02;;;28.17;;
77612;SDS011;66777;52.282;5.960;2023-05-27T06:09:11;29.33;;;27.45;;
77612;SDS011;66777;52.282;5.960;2023-05-27T06:11:36;31.15;;;29.00;;
77612;SDS011;66777;52.282;5.960;2023-05-27T06:14:02;31.02;;;28.65;;
77612;SDS011;66777;52.282;5.960;2023-05-27T06:16:28;31.40;;;29.42;;
77612;SDS011;66777;52.282;5.960;2023-05-27T06:18:54;31.85;;;29.75;;
77612;SDS011;66777;52.282;5.960;2023-05-27T06:21:20;27.42;;;25.33;;
77612;SDS011;66777;52.282;5.960;2023-05-27T06:23:46;33.15;;;31.00;;
77612;SDS011;66777;52.282;5.960;2023-05-27T06:26:11;30.73;;;28.48;;
77612;SDS011;66777;52.282;5.960;2023-05-27T06:28:37;35.40;;;32.50;;
77612;SDS011;66777;52.282;5.960;2023-05-27T06:31:03;34.08;;;31.40;;
77612;SDS011;66777;52.282;5.960;2023-05-27T06:33:29;35.70;;;33.17;;
77612;SDS011;66777;52.282;5.960;2023-05-27T06:35:54;33.53;;;31.60;;
77612;SDS011;66777;52.282;5.960;2023-05-27T06:38:20;32.25;;;29.38;;
77612;SDS011;66777;52.282;5.960;2023-05-27T06:40:46;37.58;;;35.30;;
77612;SDS011;66777;52.282;5.960;2023-05-27T06:43:11;39.00;;;36.67;;
77612;SDS011;66777;52.282;5.960;2023-05-27T06:45:37;56.72;;;53.88;;
77612;SDS011;66777;52.282;5.960;2023-05-27T06:48:04;36.22;;;34.15;;
77612;SDS011;66777;52.282;5.960;2023-05-27T06:50:30;41.10;;;38.60;;
77612;SDS011;66777;52.282;5.960;2023-05-27T06:52:56;58.60;;;55.42;;
77612;SDS011;66777;52.282;5.960;2023-05-27T06:55:21;42.15;;;39.47;;
77612;SDS011;66777;52.282;5.960;2023-05-27T06:57:47;39.45;;;36.90;;
77612;SDS011;66777;52.282;5.960;2023-05-27T07:00:12;63.40;;;60.20;;
77612;SDS011;66777;52.282;5.960;2023-05-27T07:02:38;60.90;;;57.78;;
77612;SDS011;66777;52.282;5.960;2023-05-27T07:05:04;41.38;;;39.03;;
77612;SDS011;66777;52.282;5.960;2023-05-27T07:07:31;50.00;;;47.13;;
77612;SDS011;66777;52.282;5.960;2023-05-27T07:09:57;44.53;;;41.92;;
77612;SDS011;66777;52.282;5.960;2023-05-27T07:12:23;66.10;;;62.65;;
77612;SDS011;66777;52.282;5.960;2023-05-27T07:14:48;46.30;;;43.67;;
77612;SDS011;66777;52.282;5.960;2023-05-27T07:17:14;71.55;;;68.35;;
77612;SDS011;66777;52.282;5.960;2023-05-27T07:19:40;50.25;;;47.20;;
77612;SDS011;66777;52.282;5.960;2023-05-27T07:22:06;75.22;;;72.07;;
77612;SDS011;66777;52.282;5.960;2023-05-27T07:24:31;73.60;;;70.57;;
77612;SDS011;66777;52.282;5.960;2023-05-27T07:26:57;51.13;;;48.42;;
77612;SDS011;66777;52.282;5.960;2023-05-27T07:29:23;73.63;;;70.20;;
77612;SDS011;66777;52.282;5.960;2023-05-27T07:31:48;83.75;;;80.32;;
77612;SDS011;66777;52.282;5.960;2023-05-27T07:34:14;76.20;;;72.90;;
77612;SDS011;66777;52.282;5.960;2023-05-27T07:36:40;61.55;;;58.65;;
77612;SDS011;66777;52.282;5.960;2023-05-27T07:39:05;75.25;;;71.82;;
77612;SDS011;66777;52.282;5.960;2023-05-27T07:41:31;83.18;;;79.35;;
77612;SDS011;66777;52.282;5.960;2023-05-27T07:43:58;82.03;;;78.43;;
77612;SDS011;66777;52.282;5.960;2023-05-27T07:46:24;86.57;;;83.05;;
77612;SDS011;66777;52.282;5.960;2023-05-27T07:48:50;88.65;;;85.15;;
77612;SDS011;66777;52.282;5.960;2023-05-27T07:51:16;86.95;;;83.25;;
77612;SDS011;66777;52.282;5.960;2023-05-27T07:53:41;86.10;;;82.15;;
77612;SDS011;66777;52.282;5.960;2023-05-27T07:56:07;95.63;;;92.00;;
77612;SDS011;66777;52.282;5.960;2023-05-27T07:58:33;98.80;;;94.43;;
77612;SDS011;66777;52.282;5.960;2023-05-27T08:00:59;90.68;;;87.10;;
77612;SDS011;66777;52.282;5.960;2023-05-27T08:03:25;92.00;;;87.97;;
77612;SDS011;66777;52.282;5.960;2023-05-27T08:05:50;101.55;;;97.50;;
77612;SDS011;66777;52.282;5.960;2023-05-27T08:08:16;98.35;;;94.47;;
77612;SDS011;66777;52.282;5.960;2023-05-27T08:10:42;100.72;;;96.60;;
77612;SDS011;66777;52.282;5.960;2023-05-27T08:13:09;64.18;;;61.00;;
77612;SDS011;66777;52.282;5.960;2023-05-27T08:15:36;98.53;;;94.57;;
77612;SDS011;66777;52.282;5.960;2023-05-27T08:18:01;76.88;;;73.45;;
77612;SDS011;66777;52.282;5.960;2023-05-27T08:20:27;104.35;;;100.43;;
77612;SDS011;66777;52.282;5.960;2023-05-27T08:22:52;100.40;;;96.18;;
77612;SDS011;66777;52.282;5.960;2023-05-27T08:25:18;101.47;;;97.80;;
77612;SDS011;66777;52.282;5.960;2023-05-27T08:27:54;102.88;;;98.85;;
77612;SDS011;66777;52.282;5.960;2023-05-27T08:30:26;108.35;;;103.97;;
77612;SDS011;66777;52.282;5.960;2023-05-27T08:32:52;111.30;;;107.07;;
77612;SDS011;66777;52.282;5.960;2023-05-27T08:35:18;113.78;;;109.50;;
77612;SDS011;66777;52.282;5.960;2023-05-27T08:37:45;83.75;;;80.03;;
77612;SDS011;66777;52.282;5.960;2023-05-27T08:40:13;115.80;;;111.30;;
77612;SDS011;66777;52.282;5.960;2023-05-27T08:42:40;116.07;;;110.93;;
77612;SDS011;66777;52.282;5.960;2023-05-27T08:45:07;124.60;;;120.05;;
77612;SDS011;66777;52.282;5.960;2023-05-27T08:47:33;120.07;;;115.80;;
77612;SDS011;66777;52.282;5.960;2023-05-27T08:49:59;131.30;;;126.63;;
77612;SDS011;66777;52.282;5.960;2023-05-27T08:52:29;127.43;;;122.32;;
77612;SDS011;66777;52.282;5.960;2023-05-27T08:54:58;131.07;;;126.53;;
77612;SDS011;66777;52.282;5.960;2023-05-27T08:57:30;124.25;;;119.70;;
77612;SDS011;66777;52.282;5.960;2023-05-27T08:59:58;133.90;;;129.23;;
77612;SDS011;66777;52.282;5.960;2023-05-27T09:02:24;123.25;;;118.63;;
77612;SDS011;66777;52.282;5.960;2023-05-27T09:04:52;124.93;;;120.07;;
77612;SDS011;66777;52.282;5.960;2023-05-27T09:07:21;125.93;;;121.15;;
77612;SDS011;66777;52.282;5.960;2023-05-27T09:09:56;91.78;;;88.10;;
77612;SDS011;66777;52.282;5.960;2023-05-27T09:12:23;125.90;;;120.93;;
77612;SDS011;66777;52.282;5.960;2023-05-27T09:14:50;123.40;;;118.55;;
77612;SDS011;66777;52.282;5.960;2023-05-27T09:17:17;116.43;;;111.65;;
77612;SDS011;66777;52.282;5.960;2023-05-27T09:19:46;91.80;;;87.97;;
77612;SDS011;66777;52.282;5.960;2023-05-27T09:22:25;126.78;;;122.03;;
77612;SDS011;66777;52.282;5.960;2023-05-27T09:24:53;125.57;;;120.97;;
77612;SDS011;66777;52.282;5.960;2023-05-27T09:27:28;93.43;;;89.43;;
77612;SDS011;66777;52.282;5.960;2023-05-27T09:29:55;130.70;;;125.97;;
77612;SDS011;66777;52.282;5.960;2023-05-27T09:32:30;92.97;;;89.13;;
77612;SDS011;66777;52.282;5.960;2023-05-27T09:35:00;137.63;;;132.43;;
77612;SDS011;66777;52.282;5.960;2023-05-27T09:37:30;137.85;;;133.07;;
77612;SDS011;66777;52.282;5.960;2023-05-27T09:40:09;133.88;;;128.85;;
77612;SDS011;66777;52.282;5.960;2023-05-27T09:42:44;141.68;;;136.60;;
77612;SDS011;66777;52.282;5.960;2023-05-27T09:45:16;142.95;;;137.93;;
77612;SDS011;66777;52.282;5.960;2023-05-27T09:47:47;146.93;;;141.80;;
77612;SDS011;66777;52.282;5.960;2023-05-27T09:50:13;152.95;;;147.43;;
77612;SDS011;66777;52.282;5.960;2023-05-27T09:52:40;152.00;;;147.07;;
77612;SDS011;66777;52.282;5.960;2023-05-27T09:55:08;163.98;;;158.68;;
77612;SDS011;66777;52.282;5.960;2023-05-27T09:57:36;142.68;;;137.77;;
77612;SDS011;66777;52.282;5.960;2023-05-27T10:00:05;152.10;;;146.90;;
77612;SDS011;66777;52.282;5.960;2023-05-27T10:02:42;162.18;;;156.90;;
77612;SDS011;66777;52.282;5.960;2023-05-27T10:05:12;150.40;;;145.35;;
77612;SDS011;66777;52.282;5.960;2023-05-27T10:07:40;112.15;;;107.97;;
77612;SDS011;66777;52.282;5.960;2023-05-27T10:10:15;158.80;;;153.57;;
77612;SDS011;66777;52.282;5.960;2023-05-27T10:12:44;166.52;;;160.75;;
77612;SDS011;66777;52.282;5.960;2023-05-27T10:18:11;166.90;;;161.13;;
77612;SDS011;66777;52.282;5.960;2023-05-27T10:20:55;166.32;;;160.38;;
77612;SDS011;66777;52.282;5.960;2023-05-27T10:23:26;169.43;;;163.88;;
77612;SDS011;66777;52.282;5.960;2023-05-27T10:25:56;167.07;;;161.55;;
77612;SDS011;66777;52.282;5.960;2023-05-27T10:28:36;170.35;;;164.82;;
77612;SDS011;66777;52.282;5.960;2023-05-27T10:31:13;171.18;;;165.45;;
77612;SDS011;66777;52.282;5.960;2023-05-27T10:33:42;164.48;;;158.68;;
77612;SDS011;66777;52.282;5.960;2023-05-27T10:36:16;164.45;;;158.93;;
77612;SDS011;66777;52.282;5.960;2023-05-27T10:38:56;167.27;;;161.52;;
77612;SDS011;66777;52.282;5.960;2023-05-27T10:41:24;180.73;;;174.57;;
77612;SDS011;66777;52.282;5.960;2023-05-27T10:43:57;174.45;;;168.90;;
77612;SDS011;66777;52.282;5.960;2023-05-27T10:46:24;181.43;;;175.68;;
77612;SDS011;66777;52.282;5.960;2023-05-27T10:48:50;182.00;;;176.13;;
77612;SDS011;66777;52.282;5.960;2023-05-27T10:51:16;182.65;;;176.63;;
77612;SDS011;66777;52.282;5.960;2023-05-27T10:53:42;184.70;;;178.90;;
77612;SDS011;66777;52.282;5.960;2023-05-27T10:56:08;136.70;;;131.63;;
77612;SDS011;66777;52.282;5.960;2023-05-27T10:58:35;180.77;;;174.80;;
77612;SDS011;66777;52.282;5.960;2023-05-27T11:01:10;175.85;;;170.30;;
77612;SDS011;66777;52.282;5.960;2023-05-27T11:03:45;186.43;;;180.25;;
77612;SDS011;66777;52.282;5.960;2023-05-27T11:06:11;192.88;;;186.60;;
77612;SDS011;66777;52.282;5.960;2023-05-27T11:08:38;183.63;;;177.60;;
77612;SDS011;66777;52.282;5.960;2023-05-27T11:11:08;190.75;;;184.90;;
77612;SDS011;66777;52.282;5.960;2023-05-27T11:13:35;193.20;;;187.43;;
77612;SDS011;66777;52.282;5.960;2023-05-27T11:16:04;176.18;;;170.77;;
77612;SDS011;66777;52.282;5.960;2023-05-27T11:18:38;190.73;;;184.82;;
77612;SDS011;66777;52.282;5.960;2023-05-27T11:21:06;195.02;;;188.93;;
77612;SDS011;66777;52.282;5.960;2023-05-27T11:23:39;185.52;;;179.60;;
77612;SDS011;66777;52.282;5.960;2023-05-27T11:26:12;188.40;;;182.23;;
77612;SDS011;66777;52.282;5.960;2023-05-27T11:28:48;137.85;;;133.05;;
77612;SDS011;66777;52.282;5.960;2023-05-27T11:31:19;197.95;;;191.30;;
77612;SDS011;66777;52.282;5.960;2023-05-27T11:33:48;195.45;;;188.73;;
77612;SDS011;66777;52.282;5.960;2023-05-27T11:36:15;139.90;;;134.90;;
77612;SDS011;66777;52.282;5.960;2023-05-27T11:38:49;194.00;;;187.98;;
77612;SDS011;66777;52.282;5.960;2023-05-27T11:41:20;145.95;;;140.98;;
77612;SDS011;66777;52.282;5.960;2023-05-27T11:43:50;181.63;;;175.65;;
77612;SDS011;66777;52.282;5.960;2023-05-27T11:46:17;196.48;;;190.40;;
77612;SDS011;66777;52.282;5.960;2023-05-27T11:48:44;178.00;;;172.38;;
77612;SDS011;66777;52.282;5.960;2023-05-27T11:51:10;189.15;;;183.38;;
77612;SDS011;66777;52.282;5.960;2023-05-27T11:53:40;193.35;;;187.18;;
77612;SDS011;66777;52.282;5.960;2023-05-27T11:56:10;180.70;;;175.15;;
77612;SDS011;66777;52.282;5.960;2023-05-27T11:58:36;179.85;;;174.20;;
77612;SDS011;66777;52.282;5.960;2023-05-27T12:01:02;176.60;;;171.02;;
77612;SDS011;66777;52.282;5.960;2023-05-27T12:03:29;186.57;;;180.93;;
77612;SDS011;66777;52.282;5.960;2023-05-27T12:05:56;198.95;;;192.85;;
77612;SDS011;66777;52.282;5.960;2023-05-27T12:08:22;186.73;;;181.00;;
77612;SDS011;66777;52.282;5.960;2023-05-27T12:10:48;137.30;;;132.63;;
77612;SDS011;66777;52.282;5.960;2023-05-27T12:13:18;195.65;;;189.25;;
77612;SDS011;66777;52.282;5.960;2023-05-27T12:15:47;144.23;;;139.25;;
77612;SDS011;66777;52.282;5.960;2023-05-27T12:18:13;149.07;;;143.98;;
77612;SDS011;66777;52.282;5.960;2023-05-27T12:20:38;218.35;;;211.73;;
77612;SDS011;66777;52.282;5.960;2023-05-27T12:23:04;221.65;;;215.20;;
77612;SDS011;66777;52.282;5.960;2023-05-27T12:25:30;241.20;;;234.10;;
77612;SDS011;66777;52.282;5.960;2023-05-27T12:27:56;223.27;;;216.63;;
77612;SDS011;66777;52.282;5.960;2023-05-27T12:30:22;242.68;;;235.50;;
77612;SDS011;66777;52.282;5.960;2023-05-27T12:32:48;237.18;;;230.18;;
77612;SDS011;66777;52.282;5.960;2023-05-27T12:35:14;248.95;;;242.13;;
77612;SDS011;66777;52.282;5.960;2023-05-27T12:37:40;240.35;;;233.32;;
77612;SDS011;66777;52.282;5.960;2023-05-27T12:40:07;248.77;;;241.77;;
77612;SDS011;66777;52.282;5.960;2023-05-27T12:42:37;248.82;;;241.98;;
77612;SDS011;66777;52.282;5.960;2023-05-27T12:45:03;268.10;;;260.70;;
77612;SDS011;66777;52.282;5.960;2023-05-27T12:47:30;263.10;;;255.88;;
77612;SDS011;66777;52.282;5.960;2023-05-27T12:49:55;265.20;;;257.92;;
77612;SDS011;66777;52.282;5.960;2023-05-27T12:52:22;212.55;;;206.13;;
77612;SDS011;66777;52.282;5.960;2023-05-27T12:54:48;260.08;;;252.93;;
77612;SDS011;66777;52.282;5.960;2023-05-27T12:57:14;270.80;;;263.40;;
77612;SDS011;66777;52.282;5.960;2023-05-27T12:59:40;272.08;;;264.85;;
77612;SDS011;66777;52.282;5.960;2023-05-27T13:02:06;262.30;;;255.27;;
77612;SDS011;66777;52.282;5.960;2023-05-27T13:04:32;270.98;;;263.73;;
77612;SDS011;66777;52.282;5.960;2023-05-27T13:06:58;260.52;;;253.55;;
77612;SDS011;66777;52.282;5.960;2023-05-27T13:09:24;258.63;;;251.60;;
77612;SDS011;66777;52.282;5.960;2023-05-27T13:11:49;255.52;;;248.18;;
77612;SDS011;66777;52.282;5.960;2023-05-27T13:14:15;252.45;;;245.52;;
77612;SDS011;66777;52.282;5.960;2023-05-27T13:16:40;234.10;;;227.43;;
77612;SDS011;66777;52.282;5.960;2023-05-27T13:19:06;239.82;;;233.23;;
77612;SDS011;66777;52.282;5.960;2023-05-27T13:21:32;234.88;;;228.15;;
77612;SDS011;66777;52.282;5.960;2023-05-27T13:23:58;232.25;;;225.60;;
77612;SDS011;66777;52.282;5.960;2023-05-27T13:26:23;237.93;;;231.20;;
77612;SDS011;66777;52.282;5.960;2023-05-27T13:28:50;237.98;;;231.25;;
77612;SDS011;66777;52.282;5.960;2023-05-27T13:31:16;229.55;;;223.00;;
77612;SDS011;66777;52.282;5.960;2023-05-27T13:33:42;236.35;;;229.90;;
77612;SDS011;66777;52.282;5.960;2023-05-27T13:36:07;229.88;;;223.20;;
77612;SDS011;66777;52.282;5.960;2023-05-27T13:38:33;219.93;;;213.55;;
77612;SDS011;66777;52.282;5.960;2023-05-27T13:40:59;224.45;;;217.60;;
77612;SDS011;66777;52.282;5.960;2023-05-27T13:43:24;222.05;;;215.75;;
77612;SDS011;66777;52.282;5.960;2023-05-27T13:45:50;220.38;;;214.00;;
77612;SDS011;66777;52.282;5.960;2023-05-27T13:48:16;222.48;;;216.00;;
77612;SDS011;66777;52.282;5.960;2023-05-27T13:50:42;228.82;;;222.13;;
77612;SDS011;66777;52.282;5.960;2023-05-27T13:53:08;217.52;;;211.15;;
77612;SDS011;66777;52.282;5.960;2023-05-27T13:55:34;214.30;;;208.27;;
77612;SDS011;66777;52.282;5.960;2023-05-27T13:57:59;219.02;;;212.55;;
77612;SDS011;66777;52.282;5.960;2023-05-27T14:00:25;166.50;;;161.30;;
77612;SDS011;66777;52.282;5.960;2023-05-27T14:02:50;164.93;;;159.55;;
77612;SDS011;66777;52.282;5.960;2023-05-27T14:05:16;218.45;;;212.10;;
77612;SDS011;66777;52.282;5.960;2023-05-27T14:07:42;228.50;;;222.05;;
77612;SDS011;66777;52.282;5.960;2023-05-27T14:10:09;226.60;;;219.65;;
77612;SDS011;66777;52.282;5.960;2023-05-27T14:12:35;226.82;;;220.48;;
77612;SDS011;66777;52.282;5.960;2023-05-27T14:15:01;206.93;;;200.93;;